Van Buren, Maine
Current Conditions -  °F | °C
As of 11:54 PM on Tuesday 21 Oct 2014 (Local Time) from KCAR Reporting Station
Overcast Overcast  
Wind Chill: 31°   Ceiling: 6000
Heat Index: 37°   Visibility: 10mi
Dew Point: 32°   Wind: 8mph
Humidity: 82%   Direction: 10°N
Pressure: 30.28"   Gusts: NA
Location:  47.15°N, 67.94°W
Report Text: KCAR 220354Z AUTO 01007KT 10SM BKN060 OVC080 03/00 A3028 RMK AO2 SLP264 T00280000
Loading
Personal Weather Stations






























Interactive Weather Map
Tropical Storm Tracking
New forecast layout! Learn more

10-Day Weather Forecast

Advertisements
Track Severe Weather on mobile